createdAt,value
2018-12-17T00:00:33.470Z,8.23
2018-12-17T00:03:07.291Z,8.17
2018-12-17T00:05:41.849Z,7.40
2018-12-17T00:08:19.586Z,9.00
2018-12-17T00:10:53.327Z,7.67
2018-12-17T00:13:27.117Z,6.70
2018-12-17T00:16:00.872Z,8.03
2018-12-17T00:18:35.385Z,7.10
2018-12-17T00:21:09.146Z,7.33
2018-12-17T00:23:43.143Z,6.97
2018-12-17T00:26:17.202Z,6.93
2018-12-17T00:28:51.000Z,6.97
2018-12-17T00:31:24.784Z,8.03
2018-12-17T00:33:58.731Z,6.93
2018-12-17T00:36:32.762Z,6.10
2018-12-17T00:39:08.910Z,7.10
2018-12-17T00:41:42.994Z,6.80
2018-12-17T00:44:16.756Z,6.40
2018-12-17T00:46:51.273Z,7.53
2018-12-17T00:49:26.124Z,7.57
2018-12-17T00:51:59.857Z,6.20
2018-12-17T00:54:33.645Z,6.90
2018-12-17T00:57:07.392Z,6.87
2018-12-17T00:59:41.919Z,7.33
2018-12-17T01:02:15.736Z,6.80
2018-12-17T01:04:49.887Z,6.40
2018-12-17T01:07:32.637Z,7.53
2018-12-17T01:10:09.962Z,6.57
2018-12-17T01:12:44.436Z,7.53
2018-12-17T01:15:18.223Z,7.77
2018-12-17T01:17:51.952Z,8.10
2018-12-17T01:20:25.732Z,6.60
2018-12-17T01:22:59.528Z,6.87
2018-12-17T01:25:33.283Z,7.50
2018-12-17T01:28:07.081Z,6.60
2018-12-17T01:30:41.208Z,7.10
2018-12-17T01:33:14.971Z,5.70
2018-12-17T01:35:48.789Z,6.27
2018-12-17T01:38:22.516Z,5.93
2018-12-17T01:40:57.038Z,6.10
2018-12-17T01:43:30.849Z,6.80
2018-12-17T01:46:04.673Z,5.90
2018-12-17T01:48:38.703Z,5.87
2018-12-17T01:51:12.495Z,5.80
2018-12-17T01:53:47.049Z,5.80
2018-12-17T01:56:20.842Z,5.63
2018-12-17T01:58:55.337Z,5.57
2018-12-17T02:01:29.096Z,5.63
2018-12-17T02:04:02.884Z,6.37
2018-12-17T02:06:36.679Z,6.03
2018-12-17T02:09:11.136Z,6.77
2018-12-17T02:11:44.935Z,6.80
2018-12-17T02:14:18.713Z,6.83
2018-12-17T02:16:53.272Z,7.13
2018-12-17T02:19:27.067Z,7.27
2018-12-17T02:22:00.784Z,6.50
2018-12-17T02:24:34.936Z,6.20
2018-12-17T02:27:08.976Z,6.27
2018-12-17T02:29:42.773Z,6.70
2018-12-17T02:32:17.290Z,6.17
2018-12-17T02:34:51.072Z,5.83
2018-12-17T02:37:24.835Z,5.93
2018-12-17T02:39:59.596Z,7.00
2018-12-17T02:42:33.397Z,7.20
2018-12-17T02:45:07.563Z,7.47
2018-12-17T02:47:42.060Z,6.47
2018-12-17T02:50:15.801Z,6.20
2018-12-17T02:52:49.554Z,6.97
2018-12-17T02:55:23.324Z,6.30
2018-12-17T02:57:57.076Z,6.90
2018-12-17T03:00:31.153Z,7.33
2018-12-17T03:03:04.955Z,7.10
2018-12-17T03:05:39.118Z,5.07
2018-12-17T03:08:14.347Z,6.77
2018-12-17T03:10:48.072Z,7.03
2018-12-17T03:13:22.252Z,6.47
2018-12-17T03:15:55.997Z,7.07
2018-12-17T03:18:29.766Z,7.37
2018-12-17T03:21:03.590Z,6.67
2018-12-17T03:23:38.861Z,6.50
2018-12-17T03:26:13.306Z,6.60
2018-12-17T03:28:51.665Z,7.43
2018-12-17T03:31:21.163Z,6.40
2018-12-17T03:33:54.981Z,6.63
2018-12-17T03:36:28.821Z,5.47
2018-12-17T03:39:02.584Z,5.67
2018-12-17T03:41:36.346Z,5.50
2018-12-17T03:44:10.154Z,4.77
2018-12-17T03:46:44.208Z,4.67
2018-12-17T03:49:18.020Z,5.47
2018-12-17T03:51:51.808Z,5.50
2018-12-17T03:54:25.553Z,5.77
2018-12-17T03:57:00.161Z,5.53
2018-12-17T03:59:33.977Z,6.60
2018-12-17T04:02:07.740Z,7.50
2018-12-17T04:04:41.860Z,7.70
2018-12-17T04:07:15.658Z,7.37
2018-12-17T04:09:49.450Z,6.73
2018-12-17T04:12:23.190Z,6.37
2018-12-17T04:14:56.953Z,6.40
2018-12-17T04:17:30.903Z,6.57
2018-12-17T04:20:04.643Z,5.93
2018-12-17T04:22:39.513Z,7.17
2018-12-17T04:25:13.274Z,7.93
2018-12-17T04:27:48.152Z,6.80
2018-12-17T04:33:04.342Z,6.90
2018-12-17T04:38:19.851Z,6.37
2018-12-17T04:40:53.620Z,7.70
2018-12-17T04:43:28.506Z,7.10
2018-12-17T04:46:02.561Z,6.00
2018-12-17T04:48:37.053Z,5.67
2018-12-17T04:51:15.453Z,6.10
2018-12-17T04:53:49.240Z,5.60
2018-12-17T04:56:22.994Z,6.03
2018-12-17T05:01:38.396Z,6.27
2018-12-17T05:04:12.181Z,5.53
2018-12-17T05:06:45.911Z,6.17
2018-12-17T05:09:19.935Z,5.80
2018-12-17T05:11:54.443Z,6.10
2018-12-17T05:14:28.184Z,6.67
2018-12-17T05:17:02.004Z,6.53
2018-12-17T05:19:35.727Z,6.50
2018-12-17T05:22:09.494Z,6.27
2018-12-17T05:24:43.236Z,6.50
2018-12-17T05:29:58.407Z,7.07
2018-12-17T05:32:32.489Z,7.67
2018-12-17T05:37:47.136Z,7.10
2018-12-17T05:40:20.888Z,8.20
2018-12-17T05:42:54.955Z,8.57
2018-12-17T05:45:28.720Z,8.47
2018-12-17T05:48:02.517Z,7.87
2018-12-17T05:50:36.413Z,7.87
2018-12-17T05:53:11.201Z,7.63
2018-12-17T05:55:44.923Z,7.87
2018-12-17T05:58:19.660Z,7.53
2018-12-17T06:00:53.450Z,7.83
2018-12-17T06:03:27.488Z,7.40
2018-12-17T06:06:02.024Z,7.57
2018-12-17T06:08:35.813Z,7.23
2018-12-17T06:11:10.325Z,8.27
2018-12-17T06:13:44.808Z,7.37
2018-12-17T06:16:18.550Z,6.90
2018-12-17T06:18:52.340Z,6.20
2018-12-17T06:21:26.093Z,6.10
2018-12-17T06:23:59.866Z,9.90
2018-12-17T06:26:33.679Z,7.47
2018-12-17T06:29:08.235Z,10.00
2018-12-17T06:31:42.292Z,7.63
2018-12-17T06:34:16.037Z,7.43
2018-12-17T06:36:49.816Z,8.43
2018-12-17T06:39:23.648Z,6.03
2018-12-17T06:41:57.452Z,7.00
2018-12-17T06:44:31.993Z,7.23
2018-12-17T06:47:05.788Z,6.57
2018-12-17T06:49:39.611Z,6.10
2018-12-17T06:52:13.324Z,6.97
2018-12-17T06:54:47.124Z,7.03
2018-12-17T06:57:21.167Z,6.30
2018-12-17T06:59:54.929Z,7.77
2018-12-17T07:02:28.681Z,6.50
2018-12-17T07:07:42.276Z,6.77
2018-12-17T07:10:16.182Z,6.03
2018-12-17T07:12:50.803Z,7.63
2018-12-17T07:15:24.669Z,5.27
2018-12-17T07:17:58.684Z,5.77
2018-12-17T07:20:33.226Z,5.87
2018-12-17T07:23:06.961Z,6.33
2018-12-17T07:28:20.217Z,6.63
2018-12-17T07:30:53.984Z,5.80
2018-12-17T07:36:07.507Z,6.90
2018-12-17T07:38:41.261Z,5.93
2018-12-17T07:41:15.766Z,6.63
2018-12-17T07:46:32.193Z,6.67
2018-12-17T07:49:06.696Z,5.67
2018-12-17T07:51:40.827Z,5.37
2018-12-17T07:54:15.332Z,5.47
2018-12-17T07:56:49.093Z,5.70
2018-12-17T07:59:22.881Z,5.57
2018-12-17T08:01:56.640Z,6.13
2018-12-17T08:04:30.897Z,5.47
2018-12-17T08:07:05.377Z,5.90
2018-12-17T08:09:39.115Z,5.70
2018-12-17T08:12:13.625Z,5.47
2018-12-17T08:14:47.397Z,5.73
2018-12-17T08:17:21.212Z,5.27
2018-12-17T08:22:34.760Z,5.60
2018-12-17T08:25:09.762Z,5.70
2018-12-17T08:27:43.034Z,5.37
2018-12-17T08:30:17.505Z,5.57
2018-12-17T08:32:51.260Z,4.63
2018-12-17T08:38:05.316Z,4.83
2018-12-17T08:40:39.072Z,4.87
2018-12-17T08:43:12.891Z,4.40
2018-12-17T08:45:46.660Z,4.80
2018-12-17T08:48:20.437Z,4.60
2018-12-17T08:50:54.237Z,5.60
2018-12-17T08:53:27.986Z,5.73
2018-12-17T08:56:01.763Z,4.97
2018-12-17T09:01:15.080Z,4.97
2018-12-17T09:03:50.352Z,4.77
2018-12-17T09:06:24.841Z,5.27
2018-12-17T09:08:58.612Z,5.17
2018-12-17T09:11:32.382Z,6.10
2018-12-17T09:14:07.224Z,6.07
2018-12-17T09:16:41.345Z,6.67
2018-12-17T09:19:15.424Z,6.77
2018-12-17T09:21:49.159Z,5.20
2018-12-17T09:24:23.341Z,5.53
2018-12-17T09:26:57.861Z,5.43
2018-12-17T09:29:31.634Z,4.57
2018-12-17T09:34:45.205Z,5.07
2018-12-17T09:37:18.976Z,5.00
2018-12-17T09:39:52.711Z,4.73
2018-12-17T09:42:26.779Z,4.70
2018-12-17T09:45:00.557Z,5.37
2018-12-17T09:47:34.692Z,5.20
2018-12-17T09:50:09.503Z,5.63
2018-12-17T09:52:44.013Z,4.30
2018-12-17T09:55:18.068Z,5.37
2018-12-17T09:57:51.865Z,5.20
2018-12-17T10:00:25.876Z,5.00
2018-12-17T10:02:59.353Z,4.67
2018-12-17T10:05:36.638Z,4.90
2018-12-17T10:08:10.991Z,4.67
2018-12-17T10:10:44.731Z,4.10
2018-12-17T10:13:18.484Z,4.27
2018-12-17T10:15:52.977Z,4.77
2018-12-17T10:18:27.071Z,5.23
2018-12-17T10:21:00.848Z,5.23
2018-12-17T10:23:34.637Z,5.43
2018-12-17T10:26:08.486Z,5.30
2018-12-17T10:28:42.306Z,5.87
2018-12-17T10:31:16.033Z,5.67
2018-12-17T10:33:50.108Z,6.50
2018-12-17T10:36:23.821Z,6.33
2018-12-17T10:38:57.645Z,5.90
2018-12-17T10:41:31.405Z,6.60
2018-12-17T10:44:05.459Z,5.80
2018-12-17T10:46:39.218Z,5.97
2018-12-17T10:49:12.959Z,6.17
2018-12-17T10:51:46.757Z,6.47
2018-12-17T10:54:23.637Z,6.80
2018-12-17T10:56:57.378Z,6.33
2018-12-17T10:59:31.894Z,7.10
2018-12-17T11:02:22.933Z,7.40
2018-12-17T11:05:01.781Z,7.23
2018-12-17T11:07:35.640Z,6.70
2018-12-17T11:10:10.865Z,6.63
2018-12-17T11:12:44.632Z,6.47
2018-12-17T11:15:18.388Z,7.30
2018-12-17T11:17:52.248Z,7.50
2018-12-17T11:20:30.465Z,7.27
2018-12-17T11:23:05.397Z,6.73
2018-12-17T11:25:40.203Z,6.50
2018-12-17T11:28:14.004Z,7.30
2018-12-17T11:30:47.815Z,7.73
2018-12-17T11:33:21.609Z,6.33
2018-12-17T11:35:55.380Z,7.03
2018-12-17T11:38:29.134Z,6.80
2018-12-17T11:41:02.961Z,6.73
2018-12-17T11:43:43.636Z,6.80
2018-12-17T11:46:11.256Z,6.63
2018-12-17T11:48:45.753Z,6.90
2018-12-17T11:51:19.584Z,7.50
2018-12-17T11:53:53.355Z,6.83
2018-12-17T11:57:04.468Z,7.07
2018-12-17T11:59:38.892Z,6.73
2018-12-17T12:02:13.247Z,6.87
2018-12-17T12:07:28.424Z,6.63
2018-12-17T12:10:02.202Z,7.37
2018-12-17T12:12:36.746Z,6.57
2018-12-17T12:15:10.525Z,8.17
2018-12-17T12:17:45.318Z,8.77
2018-12-17T12:20:19.077Z,7.73
2018-12-17T12:22:52.849Z,7.23
2018-12-17T12:25:26.571Z,7.77
2018-12-17T12:28:01.057Z,6.87
2018-12-17T12:30:34.989Z,7.60
2018-12-17T12:33:09.457Z,6.97
2018-12-17T12:35:43.533Z,7.37
2018-12-17T12:38:17.337Z,6.87
2018-12-17T12:40:51.933Z,7.93
2018-12-17T12:43:25.708Z,7.40
2018-12-17T12:45:59.446Z,7.10
2018-12-17T12:48:33.295Z,7.00
2018-12-17T12:51:07.040Z,7.23
2018-12-17T12:53:41.369Z,6.77
2018-12-17T12:56:15.147Z,7.70
2018-12-17T12:58:48.958Z,9.83
2018-12-17T13:01:22.691Z,6.93
2018-12-17T13:03:56.447Z,7.50
2018-12-17T13:06:30.194Z,8.33
2018-12-17T13:09:04.528Z,8.30
2018-12-17T13:11:38.301Z,7.93
2018-12-17T13:14:12.835Z,8.07
2018-12-17T13:16:46.582Z,8.37
2018-12-17T13:19:20.505Z,8.23
2018-12-17T13:21:54.973Z,8.40
2018-12-17T13:24:28.769Z,7.43
2018-12-17T13:27:02.910Z,8.90
2018-12-17T13:29:36.640Z,8.70
2018-12-17T13:37:30.262Z,10.13
2018-12-17T13:40:04.079Z,9.67
2018-12-17T13:42:37.914Z,10.43
2018-12-17T13:47:51.198Z,10.47
2018-12-17T13:53:35.272Z,8.73
2018-12-17T13:56:09.769Z,9.57
2018-12-17T13:58:43.512Z,9.20
2018-12-17T14:01:21.835Z,9.67
2018-12-17T14:06:31.301Z,8.73
2018-12-17T14:09:05.211Z,8.73
2018-12-17T14:11:39.227Z,9.13
2018-12-17T14:17:19.940Z,8.77
2018-12-17T14:20:12.367Z,8.17
2018-12-17T14:22:46.123Z,7.80
2018-12-17T14:25:19.876Z,7.93
2018-12-17T14:30:33.445Z,9.10
2018-12-17T14:33:07.206Z,8.93
2018-12-17T14:36:01.335Z,8.03
2018-12-17T14:38:35.672Z,9.17
2018-12-17T14:41:09.441Z,8.77
2018-12-17T14:43:43.232Z,8.83
2018-12-17T14:46:17.013Z,8.53
2018-12-17T14:48:51.511Z,8.87
2018-12-17T14:54:06.940Z,9.33
2018-12-17T14:56:51.743Z,9.70
2018-12-17T14:59:29.567Z,8.80
2018-12-17T15:07:27.169Z,10.83
2018-12-17T15:10:02.444Z,10.10
2018-12-17T15:12:36.931Z,10.53
2018-12-17T15:17:53.495Z,9.87
2018-12-17T15:20:27.310Z,10.60
2018-12-17T15:23:01.690Z,11.20
2018-12-17T15:28:17.981Z,11.20
2018-12-17T15:30:51.710Z,11.13
2018-12-17T15:36:06.912Z,11.87
2018-12-17T15:38:41.716Z,10.90
2018-12-17T15:41:15.466Z,11.03
2018-12-17T15:46:31.569Z,11.47
2018-12-17T15:49:06.396Z,11.80
2018-12-17T15:51:41.201Z,11.83
2018-12-17T15:56:56.371Z,13.30
2018-12-17T15:59:30.163Z,11.73
2018-12-17T16:02:03.939Z,11.77
2018-12-17T16:07:18.696Z,13.00
2018-12-17T16:12:33.921Z,13.80
2018-12-17T16:17:47.515Z,14.37
2018-12-17T16:20:21.297Z,16.00
2018-12-17T16:22:55.060Z,16.73
2018-12-17T16:28:19.476Z,16.57
2018-12-17T16:30:53.967Z,15.00
2018-12-17T16:36:11.680Z,16.53
2018-12-17T16:38:45.490Z,16.43
2018-12-17T16:46:41.511Z,16.87
2018-12-17T16:49:15.628Z,19.07
2018-12-17T16:51:50.151Z,18.07
2018-12-17T16:57:07.469Z,18.33
2018-12-17T16:59:41.225Z,18.30
2018-12-17T17:02:15.016Z,18.60
2018-12-17T17:07:30.228Z,17.70
2018-12-17T17:10:07.406Z,18.23
2018-12-17T17:12:41.249Z,17.50
2018-12-17T17:17:56.410Z,17.70
2018-12-17T17:20:30.203Z,17.33
2018-12-17T17:23:04.286Z,18.23
2018-12-17T17:28:18.295Z,19.47
2018-12-17T17:30:52.458Z,18.13
2018-12-17T17:36:16.403Z,19.00
2018-12-17T17:38:50.304Z,18.47
2018-12-17T17:41:24.006Z,18.60
2018-12-17T17:46:43.581Z,18.70
2018-12-17T17:51:58.815Z,19.97
2018-12-17T17:57:12.476Z,19.67
2018-12-17T17:59:46.249Z,19.10
2018-12-17T18:02:19.998Z,17.47
2018-12-17T18:07:35.134Z,18.37
2018-12-17T18:10:11.045Z,18.50
2018-12-17T18:12:44.797Z,19.17
2018-12-17T18:18:00.926Z,19.03
2018-12-17T18:20:34.768Z,19.40
2018-12-17T18:23:08.531Z,18.47
2018-12-17T18:28:21.728Z,19.17
2018-12-17T18:30:55.500Z,18.97
2018-12-17T18:36:09.054Z,19.67
2018-12-17T18:38:42.841Z,18.70
2018-12-17T18:41:16.670Z,19.23
2018-12-17T18:46:40.463Z,20.30
2018-12-17T18:49:14.285Z,19.73
2018-12-17T18:51:48.849Z,17.53
2018-12-17T18:57:04.941Z,20.03
2018-12-17T18:59:39.279Z,18.80
2018-12-17T19:02:13.025Z,18.60
2018-12-17T19:07:26.264Z,19.20
2018-12-17T19:10:00.040Z,19.60
2018-12-17T19:12:33.784Z,18.57
2018-12-17T19:17:49.131Z,20.50
2018-12-17T19:20:24.240Z,19.13
2018-12-17T19:22:58.019Z,20.57
2018-12-17T19:28:14.300Z,18.47
2018-12-17T19:30:48.111Z,18.73
2018-12-17T19:33:22.168Z,18.83
2018-12-17T19:38:35.425Z,18.63
2018-12-17T19:41:09.248Z,18.37
2018-12-17T19:46:23.517Z,17.80
2018-12-17T19:48:58.010Z,17.43
2018-12-17T19:51:31.771Z,18.10
2018-12-17T19:56:47.271Z,16.47
2018-12-17T19:59:21.048Z,17.80
2018-12-17T20:01:55.560Z,17.80
2018-12-17T20:07:19.583Z,16.97
2018-12-17T20:09:54.124Z,16.03
2018-12-17T20:12:27.892Z,16.43
2018-12-17T20:17:43.080Z,16.77
2018-12-17T20:20:16.897Z,15.40
2018-12-17T20:22:51.438Z,17.23
2018-12-17T20:28:06.713Z,15.77
2018-12-17T20:36:16.933Z,15.53
2018-12-17T20:38:50.718Z,15.47
2018-12-17T20:41:25.220Z,14.80
2018-12-17T20:46:40.449Z,14.77
2018-12-17T20:49:14.246Z,13.40
2018-12-17T20:51:48.261Z,13.80
2018-12-17T20:57:03.450Z,11.43
2018-12-17T20:59:37.257Z,12.80
2018-12-17T21:02:11.007Z,11.87
2018-12-17T21:07:26.498Z,11.23
2018-12-17T21:10:00.300Z,12.07
2018-12-17T21:12:34.114Z,11.90
2018-12-17T21:17:50.714Z,11.30
2018-12-17T21:20:24.514Z,10.97
2018-12-17T21:22:58.838Z,11.70
2018-12-17T21:28:14.032Z,10.53
2018-12-17T21:30:47.835Z,11.57
2018-12-17T21:33:21.624Z,11.07
2018-12-17T21:38:34.909Z,10.80
2018-12-17T21:41:08.692Z,12.00
2018-12-17T21:46:23.928Z,12.23
2018-12-17T21:48:57.720Z,10.47
2018-12-17T21:51:31.500Z,11.00
2018-12-17T21:56:47.047Z,9.07
2018-12-17T21:59:20.860Z,9.37
2018-12-17T22:01:55.399Z,10.23
2018-12-17T22:04:29.161Z,9.73
2018-12-17T22:07:03.207Z,8.83
2018-12-17T22:09:37.760Z,8.80
2018-12-17T22:12:11.571Z,8.03
2018-12-17T22:14:45.850Z,9.33
2018-12-17T22:17:20.380Z,8.83
2018-12-17T22:19:54.880Z,8.93
2018-12-17T22:22:35.204Z,8.30
2018-12-17T22:25:08.973Z,8.57
2018-12-17T22:30:25.687Z,9.57
2018-12-17T22:32:59.476Z,8.40
2018-12-17T22:35:33.231Z,8.73
2018-12-17T22:40:48.639Z,9.20
2018-12-17T22:43:22.412Z,8.87
2018-12-17T22:45:56.892Z,9.10
2018-12-17T22:48:30.626Z,8.37
2018-12-17T22:51:05.433Z,8.40
2018-12-17T22:53:39.193Z,8.37
2018-12-17T22:56:12.991Z,8.60
2018-12-17T22:58:46.726Z,8.90
2018-12-17T23:01:20.448Z,9.47
2018-12-17T23:03:54.973Z,8.73
2018-12-17T23:06:28.694Z,9.03
2018-12-17T23:09:08.593Z,9.20
2018-12-17T23:12:38.481Z,9.03
2018-12-17T23:18:49.430Z,8.53
2018-12-17T23:24:05.220Z,9.20
2018-12-17T23:29:19.471Z,8.40
2018-12-17T23:31:56.675Z,8.63
2018-12-17T23:34:30.491Z,9.50
2018-12-17T23:37:04.274Z,8.67
2018-12-17T23:39:38.727Z,9.40
2018-12-17T23:42:12.500Z,7.87
2018-12-17T23:44:46.241Z,8.90
2018-12-17T23:47:19.992Z,9.30
2018-12-17T23:52:36.343Z,9.30
2018-12-17T23:57:54.075Z,8.50
